Time;durP1;ratioP1;P1;durP2;ratioP2;P2;SDS_P1;SDS_P2;PMS_P1;PMS_P2;Temp;Humidity;BMP_temperature;BMP_pressure;BME280_temperature;BME280_humidity;BME280_pressure;Samples;Min_cycle;Max_cycle;Signal;HPM_P1;HPM_P2
2021/12/18 11:30:08;;;;;;;3.97;2.70;;;5.80;99.90;;;;;;21060777;28;20928;-71
2021/12/18 11:40:14;;;;;;;4.77;2.97;;;5.70;99.90;;;;;;21063709;28;20239;-73
2021/12/18 11:50:23;;;;;;;6.13;3.13;;;5.30;99.90;;;;;;21059519;28;20281;-70
2021/12/18 12:00:39;;;;;;;3.73;2.50;;;;;;;;;;21051570;28;20217;-71
2021/12/18 12:11:06;;;;;;;3.90;2.30;;;5.50;99.90;;;;;;21059419;28;20235;-70
2021/12/18 12:21:28;;;;;;;2.80;1.90;;;;;;;;;;21061601;28;20261;-69
2021/12/18 12:31:30;;;;;;;3.03;2.17;;;;;;;;;;21047926;28;20235;-70
2021/12/18 12:41:32;;;;;;;4.03;2.30;;;;;;;;;;20989247;28;20235;-71
2021/12/18 12:51:55;;;;;;;4.13;2.03;;;;;;;;;;20999423;28;20213;-72
2021/12/18 13:01:56;;;;;;;4.73;2.53;;;;;;;;;;20997022;28;20259;-71
2021/12/18 13:12:05;;;;;;;3.87;2.83;;;5.50;99.90;;;;;;20999369;28;20607;-70
2021/12/18 13:22:13;;;;;;;4.20;2.77;;;5.50;99.90;;;;;;20999918;28;20254;-70
2021/12/18 13:32:14;;;;;;;6.43;3.40;;;;;;;;;;20985218;28;20220;-69
2021/12/18 13:42:19;;;;;;;5.27;3.07;;;5.30;99.90;;;;;;20973859;28;20697;-71
2021/12/18 13:52:41;;;;;;;6.17;2.70;;;;;;;;;;20989899;22;20223;-67
2021/12/18 14:02:45;;;;;;;4.57;3.00;;;;;;;;;;20715898;28;20620;-67
2021/12/18 14:12:47;;;;;;;4.30;3.13;;;;;;;;;;20691493;28;20591;-67
2021/12/18 14:22:53;;;;;;;5.00;2.83;;;;;;;;;;20677847;28;20219;-67
2021/12/18 14:33:07;;;;;;;5.43;3.10;;;;;;;;;;20676203;28;20216;-67
2021/12/18 14:43:17;;;;;;;3.70;1.70;;;5.40;99.90;;;;;;20702475;28;20210;-67
2021/12/18 14:53:24;;;;;;;4.50;3.37;;;5.30;99.90;;;;;;20659413;28;20276;-67
2021/12/18 15:03:41;;;;;;;3.50;2.23;;;5.30;99.90;;;;;;20665843;28;20748;-67
2021/12/18 15:13:48;;;;;;;4.23;2.90;;;5.30;99.90;;;;;;20665945;28;20227;-67
2021/12/18 15:23:49;;;;;;;3.77;2.63;;;;;;;;;;20701264;28;20297;-67
2021/12/18 15:33:52;;;;;;;3.87;2.43;;;;;;;;;;20716618;28;20215;-67
2021/12/18 15:43:54;;;;;;;3.10;1.90;;;;;;;;;;20701363;28;20564;-67
2021/12/18 15:53:56;;;;;;;3.67;2.30;;;;;;;;;;20715215;28;20215;-67
2021/12/18 16:04:00;;;;;;;3.80;2.43;;;5.30;99.90;;;;;;20659670;28;20275;-67
2021/12/18 16:14:02;;;;;;;3.90;2.23;;;;;;;;;;20716437;28;20568;-67
2021/12/18 16:24:04;;;;;;;5.13;3.73;;;4.40;99.90;;;;;;20750543;28;20688;-67
2021/12/18 16:34:07;;;;;;;4.10;2.73;;;;;;;;;;20733655;28;20235;-67
2021/12/18 16:44:09;;;;;;;4.33;2.67;;;;;;;;;;20717306;28;20211;-67
2021/12/18 16:54:11;;;;;;;5.23;2.93;;;;;;;;;;20701025;28;20231;-67
2021/12/18 17:04:18;;;;;;;5.03;3.67;;;;;;;;;;20714208;28;20235;-68
2021/12/18 17:14:20;;;;;;;5.70;3.43;;;;;;;;;;20710556;28;20258;-68
2021/12/18 17:24:22;;;;;;;5.60;3.33;;;;;;;;;;20656733;28;20238;-67
2021/12/18 17:34:23;;;;;;;4.07;3.07;;;5.20;99.90;;;;;;20631650;28;20219;-67
2021/12/18 17:44:26;;;;;;;4.97;2.67;;;;;;;;;;20640733;28;20590;-67
2021/12/18 17:54:27;;;;;;;4.67;2.70;;;;;;;;;;20695857;28;20218;-67
2021/12/18 18:04:29;;;;;;;4.00;2.73;;;;;;;;;;20710405;28;20211;-67
2021/12/18 18:14:31;;;;;;;4.23;3.03;;;;;;;;;;20718784;28;20574;-67
2021/12/18 18:24:33;;;;;;;3.00;1.90;;;;;;;;;;20725319;28;20250;-67
2021/12/18 18:34:35;;;;;;;3.50;2.03;;;;;;;;;;20684383;28;20258;-68
2021/12/18 18:44:38;;;;;;;3.50;1.77;;;;;;;;;;20685049;28;20270;-66
2021/12/18 18:54:41;;;;;;;3.67;2.33;;;;;;;;;;20692845;28;20218;-67
2021/12/18 19:04:43;;;;;;;4.00;1.63;;;;;;;;;;20640433;28;20274;-68
2021/12/18 19:14:45;;;;;;;2.73;1.53;;;;;;;;;;20611139;28;20223;-68
2021/12/18 19:24:47;;;;;;;2.40;1.53;;;;;;;;;;20659153;28;20219;-67
2021/12/18 19:34:51;;;;;;;3.17;2.07;;;;;;;;;;20667275;28;20317;-67
2021/12/18 19:44:53;;;;;;;2.07;1.40;;;;;;;;;;20639727;28;20277;-67
2021/12/18 19:54:55;;;;;;;4.97;3.07;;;;;;;;;;20693351;28;20219;-67
2021/12/18 20:04:58;;;;;;;3.30;2.13;;;;;;;;;;20740406;28;20223;-67
2021/12/18 20:15:00;;;;;;;3.33;1.93;;;;;;;;;;20791215;23;20246;-83
2021/12/18 20:25:02;;;;;;;3.73;2.07;;;;;;;;;;20736728;28;20242;-79
2021/12/18 20:35:04;;;;;;;3.00;2.00;;;;;;;;;;20708238;28;20606;-79
2021/12/18 20:45:08;;;;;;;2.57;1.83;;;4.90;99.90;;;;;;20694127;28;20819;-77
2021/12/18 20:55:10;;;;;;;2.63;1.40;;;;;;;;;;20728721;28;20231;-79
2021/12/18 21:05:12;;;;;;;3.00;1.80;;;4.90;99.90;;;;;;20703524;28;20195;-79
2021/12/18 21:15:16;;;;;;;1.67;1.10;;;;;;;;;;20705940;28;20627;-79
2021/12/18 21:25:18;;;;;;;1.80;1.23;;;;;;;;;;20665675;28;20203;-78
2021/12/18 21:47:42;;;;;;;2.80;1.93;;;;;;;;;;21219389;27;20584;-68
2021/12/18 21:57:44;;;;;;;3.60;2.13;;;;;;;;;;21198183;28;20248;-68
2021/12/18 22:07:46;;;;;;;2.33;1.50;;;;;;;;;;21148086;28;20260;-68
2021/12/18 22:17:48;;;;;;;2.67;1.80;;;;;;;;;;21184785;28;20689;-68
2021/12/18 22:27:50;;;;;;;2.40;1.63;;;;;;;;;;21220227;28;20685;-68
2021/12/18 22:37:52;;;;;;;4.87;2.67;;;;;;;;;;21185986;28;20200;-68
2021/12/18 22:47:56;;;;;;;3.07;2.07;;;;;;;;;;21085904;28;20204;-68
2021/12/18 22:57:58;;;;;;;4.47;2.37;;;;;;;;;;21069253;28;20245;-68
2021/12/18 23:08:01;;;;;;;3.60;1.93;;;;;;;;;;21062102;28;20218;-68
2021/12/18 23:18:18;;;;;;;3.73;1.53;;;;;;;;;;20972894;28;20741;-68
2021/12/18 23:28:22;;;;;;;2.70;1.60;;;;;;;;;;20966718;28;20565;-67
2021/12/18 23:38:24;;;;;;;4.50;3.30;;;;;;;;;;20976050;28;20211;-68
2021/12/18 23:48:25;;;;;;;4.83;2.90;;;;;;;;;;21113266;28;20211;-68
2021/12/18 23:58:28;;;;;;;2.90;1.80;;;;;;;;;;21129387;28;20289;-68
